Time;durP1;ratioP1;P1;durP2;ratioP2;P2;SDS_P1;SDS_P2;PMS_P1;PMS_P2;Temp;Humidity;BMP_temperature;BMP_pressure;BME280_temperature;BME280_humidity;BME280_pressure;Samples;Min_cycle;Max_cycle;Signal;HPM_P1;HPM_P2
2023/03/28 00:01:50;;;;;;;0.70;0.70;;;2.00;99.90;;;;;;4982014;28;20734;-73
2023/03/28 00:04:16;;;;;;;4.63;0.90;;;2.00;99.90;;;;;;4985414;28;20208;-79
2023/03/28 00:06:44;;;;;;;2.13;0.90;;;2.00;99.90;;;;;;4976031;28;20200;-75
2023/03/28 00:09:24;;;;;;;1.67;0.60;;;2.10;99.90;;;;;;4976156;28;20588;-72
2023/03/28 00:11:50;;;;;;;0.70;0.70;;;1.90;99.90;;;;;;4991223;28;20204;-71
2023/03/28 00:14:15;;;;;;;0.60;0.57;;;1.60;99.90;;;;;;4994224;28;20327;-71
2023/03/28 00:16:44;;;;;;;1.33;0.70;;;1.40;99.90;;;;;;4994782;28;20268;-71
2023/03/28 00:19:16;;;;;;;2.00;0.40;;;1.20;99.90;;;;;;4991004;28;20205;-71
2023/03/28 00:21:47;;;;;;;0.40;0.40;;;1.20;99.90;;;;;;4991986;28;20460;-71
2023/03/28 00:24:15;;;;;;;1.00;0.60;;;1.10;99.90;;;;;;4987153;28;20213;-71
2023/03/28 00:26:42;;;;;;;1.23;0.70;;;1.00;99.90;;;;;;4977611;28;20200;-71
2023/03/28 00:29:11;;;;;;;1.80;0.87;;;0.90;99.90;;;;;;4979329;28;20216;-73
2023/03/28 00:31:38;;;;;;;4.23;0.67;;;0.90;99.90;;;;;;4992658;28;20623;-73
2023/03/28 00:34:04;;;;;;;3.33;0.73;;;1.00;99.90;;;;;;4997546;28;20238;-71
2023/03/28 00:36:31;;;;;;;4.63;0.90;;;1.10;99.90;;;;;;4998133;28;20210;-70
2023/03/28 00:38:58;;;;;;;1.83;0.60;;;1.20;99.90;;;;;;4998187;28;20297;-72
2023/03/28 00:41:25;;;;;;;0.73;0.57;;;1.20;99.90;;;;;;4998107;28;21479;-70
2023/03/28 00:43:53;;;;;;;0.73;0.73;;;1.20;99.90;;;;;;4998111;28;20221;-70
2023/03/28 00:46:21;;;;;;;1.00;0.50;;;1.20;99.90;;;;;;4997660;28;20203;-70
2023/03/28 00:48:53;;;;;;;4.40;1.00;;;1.20;99.90;;;;;;4998263;28;20829;-71
2023/03/28 00:51:24;;;;;;;3.90;0.80;;;1.10;99.90;;;;;;4997870;28;20226;-72
2023/03/28 00:53:52;;;;;;;1.60;0.67;;;1.10;99.90;;;;;;4995328;28;20224;-70
2023/03/28 00:56:22;;;;;;;0.37;0.37;;;1.10;99.90;;;;;;4997548;28;20232;-70
2023/03/28 00:58:49;;;;;;;2.37;0.87;;;1.10;99.90;;;;;;4998094;28;20873;-71
2023/03/28 01:01:18;;;;;;;1.23;0.53;;;1.00;99.90;;;;;;4997245;28;20271;-71
2023/03/28 01:03:51;;;;;;;2.60;0.60;;;1.00;99.90;;;;;;4996855;28;20209;-70
2023/03/28 01:06:20;;;;;;;1.20;0.97;;;1.00;99.90;;;;;;4998558;28;20281;-71
2023/03/28 01:08:47;;;;;;;2.87;0.90;;;1.00;99.90;;;;;;4998153;28;20248;-70
2023/03/28 01:11:13;;;;;;;1.53;1.00;;;1.10;99.90;;;;;;4996161;28;20307;-71
2023/03/28 01:13:48;;;;;;;0.63;0.50;;;1.00;99.90;;;;;;4996666;28;20626;-72
2023/03/28 01:16:14;;;;;;;2.73;1.33;;;1.00;99.90;;;;;;4978582;28;20609;-71
2023/03/28 01:18:41;;;;;;;3.03;1.20;;;1.00;99.90;;;;;;4978560;28;20271;-71
2023/03/28 01:21:33;;;;;;;2.57;0.63;;;0.90;99.90;;;;;;4978297;28;20206;-71
2023/03/28 01:24:29;;;;;;;2.77;1.10;;;0.90;99.90;;;;;;4996486;28;20211;-68
2023/03/28 01:27:16;;;;;;;2.23;0.53;;;0.90;99.90;;;;;;4997537;28;20211;-70
2023/03/28 01:30:27;;;;;;;1.90;0.80;;;0.90;99.90;;;;;;4997325;28;20798;-70
2023/03/28 01:33:08;;;;;;;0.77;0.70;;;1.00;99.90;;;;;;4995348;28;20250;-70
2023/03/28 01:35:55;;;;;;;1.83;0.90;;;1.10;99.90;;;;;;4996704;28;20265;-70
2023/03/28 01:38:59;;;;;;;3.20;0.90;;;1.10;99.90;;;;;;4996848;28;20206;-70
2023/03/28 01:41:47;;;;;;;0.87;0.67;;;1.20;99.90;;;;;;4985175;28;20267;-70
2023/03/28 01:44:36;;;;;;;2.00;0.70;;;1.20;99.90;;;;;;4987477;28;20732;-72
2023/03/28 01:47:14;;;;;;;1.13;0.70;;;1.30;99.90;;;;;;4986717;28;20281;-71
2023/03/28 01:49:54;;;;;;;3.33;0.90;;;1.30;99.90;;;;;;4987059;28;20242;-72
2023/03/28 01:52:39;;;;;;;2.10;0.97;;;1.30;99.90;;;;;;4987653;28;20228;-71
2023/03/28 01:55:11;;;;;;;3.67;0.93;;;1.30;99.90;;;;;;4987090;28;20555;-72
2023/03/28 01:57:52;;;;;;;7.23;1.00;;;1.30;99.90;;;;;;4987337;28;20664;-71
2023/03/28 02:00:29;;;;;;;6.40;1.30;;;1.30;99.90;;;;;;4985734;28;20886;-71
2023/03/28 02:03:17;;;;;;;1.53;1.30;;;1.20;99.90;;;;;;4985361;28;20202;-70
2023/03/28 02:05:44;;;;;;;4.33;1.00;;;1.10;99.90;;;;;;4984578;28;20199;-71
2023/03/28 02:08:12;;;;;;;2.23;1.57;;;0.80;99.90;;;;;;4986447;28;20320;-71
2023/03/28 02:10:40;;;;;;;4.20;1.07;;;0.70;99.90;;;;;;4986568;28;20724;-70
2023/03/28 02:13:14;;;;;;;1.07;0.80;;;0.70;99.90;;;;;;4986944;28;20313;-70
2023/03/28 02:15:42;;;;;;;3.77;1.80;;;0.60;99.90;;;;;;4986743;28;20202;-71
2023/03/28 02:18:22;;;;;;;2.90;1.17;;;0.60;99.90;;;;;;4986664;28;20200;-70
2023/03/28 02:20:53;;;;;;;1.40;1.30;;;0.60;99.90;;;;;;4984553;28;20282;-70
2023/03/28 02:23:29;;;;;;;3.77;1.30;;;0.60;99.90;;;;;;4986995;28;20207;-70
2023/03/28 02:25:55;;;;;;;1.20;1.10;;;0.60;99.90;;;;;;4987170;28;20205;-70
2023/03/28 02:28:22;;;;;;;1.40;1.10;;;0.50;99.90;;;;;;4985071;28;20634;-69
2023/03/28 02:30:47;;;;;;;1.67;1.20;;;0.60;99.90;;;;;;4987109;28;20211;-70
2023/03/28 02:33:37;;;;;;;2.07;1.17;;;0.60;99.90;;;;;;4989011;28;20680;-70
2023/03/28 02:36:23;;;;;;;2.23;1.10;;;0.50;99.90;;;;;;4996867;28;20207;-69
2023/03/28 02:39:31;;;;;;;3.70;1.17;;;0.50;99.90;;;;;;4993502;28;20219;-69
2023/03/28 02:42:09;;;;;;;2.40;1.13;;;0.50;99.90;;;;;;4982654;28;20223;-69
2023/03/28 02:44:49;;;;;;;1.27;1.17;;;0.40;99.90;;;;;;4995007;28;20216;-69
2023/03/28 02:47:37;;;;;;;1.90;0.90;;;0.40;99.90;;;;;;4979355;28;20222;-70
2023/03/28 02:50:45;;;;;;;3.70;1.43;;;0.50;99.90;;;;;;4976549;28;20254;-69
2023/03/28 02:53:25;;;;;;;0.80;0.80;;;0.60;99.90;;;;;;4965964;28;20218;-70
2023/03/28 02:56:00;;;;;;;2.50;1.00;;;0.60;99.90;;;;;;4984594;28;20316;-70
2023/03/28 02:58:54;;;;;;;2.13;1.20;;;0.70;99.90;;;;;;4986090;28;20199;-72
2023/03/28 03:01:20;;;;;;;1.60;1.07;;;0.70;99.90;;;;;;4986625;28;20205;-71
2023/03/28 03:03:48;;;;;;;3.40;1.70;;;0.80;99.90;;;;;;4983745;28;20292;-70
2023/03/28 03:06:16;;;;;;;0.80;0.67;;;0.80;99.90;;;;;;4986596;28;20233;-71
2023/03/28 03:08:42;;;;;;;2.00;0.90;;;0.80;99.90;;;;;;4986206;28;20263;-70
2023/03/28 03:11:08;;;;;;;3.23;1.10;;;0.80;99.90;;;;;;4985207;28;20613;-68
2023/03/28 03:13:33;;;;;;;0.73;0.73;;;0.90;99.90;;;;;;4986704;28;20189;-70
2023/03/28 03:15:59;;;;;;;2.20;0.90;;;0.80;99.90;;;;;;4985792;28;20206;-70
2023/03/28 03:18:26;;;;;;;4.57;1.17;;;0.80;99.90;;;;;;4986160;28;20679;-70
2023/03/28 03:20:51;;;;;;;1.57;1.20;;;0.80;99.90;;;;;;4986081;28;20573;-70
2023/03/28 03:23:17;;;;;;;2.97;2.27;;;0.70;99.90;;;;;;4985805;28;20202;-71
2023/03/28 03:25:44;;;;;;;2.63;1.67;;;0.70;99.90;;;;;;4985704;28;20230;-70
2023/03/28 03:28:10;;;;;;;2.77;1.03;;;0.60;99.90;;;;;;4986217;28;20286;-70
2023/03/28 03:30:35;;;;;;;4.07;1.73;;;0.60;99.90;;;;;;4984234;28;20279;-70
2023/03/28 03:33:01;;;;;;;6.83;1.50;;;0.50;99.90;;;;;;4985263;28;20209;-69
2023/03/28 03:35:32;;;;;;;2.00;1.17;;;0.50;99.90;;;;;;4986853;28;20585;-71
2023/03/28 03:38:00;;;;;;;3.77;2.40;;;0.50;99.90;;;;;;4986842;28;20241;-71
2023/03/28 03:40:26;;;;;;;4.47;1.60;;;0.50;99.90;;;;;;4985063;28;20292;-70
2023/03/28 03:42:51;;;;;;;7.50;1.17;;;0.50;99.90;;;;;;4985457;28;20211;-70
2023/03/28 03:45:17;;;;;;;6.63;1.43;;;0.50;99.90;;;;;;4985294;28;20241;-70
2023/03/28 03:47:43;;;;;;;4.70;2.13;;;0.50;99.90;;;;;;4985623;28;20226;-71
2023/03/28 03:50:09;;;;;;;3.73;1.50;;;0.60;99.90;;;;;;4985259;28;20206;-72
2023/03/28 03:52:35;;;;;;;2.73;1.70;;;0.50;99.90;;;;;;4984779;28;20205;-71
2023/03/28 03:55:00;;;;;;;1.80;1.50;;;0.50;99.90;;;;;;4983688;28;20511;-72
2023/03/28 03:57:26;;;;;;;6.70;1.93;;;0.40;99.90;;;;;;4985923;28;20568;-74
2023/03/28 03:59:52;;;;;;;5.50;1.47;;;0.40;99.90;;;;;;4989198;28;20216;-74
2023/03/28 04:02:18;;;;;;;3.70;1.60;;;0.40;99.90;;;;;;4988873;28;20562;-72
2023/03/28 04:04:44;;;;;;;4.17;1.10;;;0.30;99.90;;;;;;4987588;28;20891;-72
2023/03/28 04:07:10;;;;;;;2.80;1.80;;;0.30;99.90;;;;;;4989126;28;20211;-71
2023/03/28 04:09:36;;;;;;;1.57;0.60;;;0.30;99.90;;;;;;4971667;28;20217;-72
2023/03/28 04:12:01;;;;;;;3.07;1.00;;;0.30;99.90;;;;;;4988600;28;20702;-71
2023/03/28 04:14:27;;;;;;;3.10;1.80;;;0.30;99.90;;;;;;4987654;28;20333;-78
2023/03/28 04:16:52;;;;;;;2.87;1.13;;;0.20;99.90;;;;;;4989075;28;20233;-71
2023/03/28 04:19:19;;;;;;;6.23;1.23;;;0.30;99.90;;;;;;4987614;28;20252;-72
2023/03/28 04:21:47;;;;;;;5.80;1.40;;;0.20;99.90;;;;;;4990242;28;20210;-72
2023/03/28 04:24:19;;;;;;;1.00;0.97;;;0.20;99.90;;;;;;4988993;28;20544;-73
2023/03/28 04:26:48;;;;;;;5.73;1.67;;;0.20;99.90;;;;;;4989149;28;20202;-70
2023/03/28 04:29:15;;;;;;;3.23;1.83;;;0.20;99.90;;;;;;4988128;28;20678;-69
2023/03/28 04:31:48;;;;;;;3.60;1.23;;;0.10;99.90;;;;;;4989569;28;20206;-69
2023/03/28 04:34:14;;;;;;;1.80;1.30;;;0.10;99.90;;;;;;4986101;28;20241;-69
2023/03/28 04:36:40;;;;;;;1.30;1.20;;;0.10;99.90;;;;;;4989032;28;20796;-70
2023/03/28 04:39:05;;;;;;;6.40;1.70;;;0.10;99.90;;;;;;4985464;28;20202;-70
2023/03/28 04:41:33;;;;;;;2.93;1.23;;;0.10;99.90;;;;;;4989152;28;20218;-70
2023/03/28 04:43:58;;;;;;;1.53;1.23;;;0.10;99.90;;;;;;4988736;28;20205;-75
2023/03/28 04:46:24;;;;;;;4.07;1.77;;;0.20;99.90;;;;;;4989278;28;20331;-73
2023/03/28 04:48:50;;;;;;;4.40;1.20;;;0.20;99.90;;;;;;4987656;28;20214;-72
2023/03/28 04:51:15;;;;;;;2.50;1.70;;;0.20;99.90;;;;;;4986406;28;20245;-72
2023/03/28 04:53:41;;;;;;;3.73;1.40;;;0.20;99.90;;;;;;4987967;28;20191;-73
2023/03/28 04:56:07;;;;;;;4.07;1.27;;;0.20;99.90;;;;;;4987818;28;20206;-72
2023/03/28 04:58:33;;;;;;;1.33;1.23;;;0.20;99.90;;;;;;4987917;28;20197;-74
2023/03/28 05:01:02;;;;;;;3.73;1.40;;;0.20;99.90;;;;;;4987528;28;20198;-73
2023/03/28 05:03:28;;;;;;;6.43;1.80;;;0.20;99.90;;;;;;4982683;28;20274;-74
2023/03/28 05:05:54;;;;;;;4.53;2.10;;;0.20;99.90;;;;;;4961196;28;20202;-74
2023/03/28 05:08:23;;;;;;;2.93;0.93;;;0.20;99.90;;;;;;4977478;28;20195;-74
2023/03/28 05:10:50;;;;;;;1.87;1.20;;;0.20;99.90;;;;;;4979143;28;20226;-72
2023/03/28 05:13:15;;;;;;;5.80;1.67;;;0.20;99.90;;;;;;4976593;28;20227;-73
2023/03/28 05:15:41;;;;;;;6.27;1.40;;;0.30;99.90;;;;;;4977877;28;20705;-71
2023/03/28 05:18:07;;;;;;;1.63;1.47;;;0.30;99.90;;;;;;4978223;28;20199;-74
2023/03/28 05:20:33;;;;;;;2.23;1.27;;;0.40;99.90;;;;;;4978209;28;20677;-71
2023/03/28 05:23:00;;;;;;;10.07;1.60;;;0.40;99.90;;;;;;4977106;28;20214;-70
2023/03/28 05:25:25;;;;;;;2.03;1.43;;;0.40;99.90;;;;;;4996786;28;20229;-71
2023/03/28 05:27:51;;;;;;;2.80;1.20;;;0.30;99.90;;;;;;4997246;28;20881;-72
2023/03/28 05:30:17;;;;;;;4.03;1.53;;;0.30;99.90;;;;;;4996977;28;20218;-72
2023/03/28 05:32:42;;;;;;;3.07;1.10;;;0.40;99.90;;;;;;4997454;28;20202;-72
2023/03/28 05:35:10;;;;;;;2.67;1.47;;;0.60;99.90;;;;;;4997111;28;20310;-72
2023/03/28 05:37:35;;;;;;;1.27;1.20;;;0.60;99.90;;;;;;4978230;28;20207;-71
2023/03/28 05:40:05;;;;;;;7.33;1.43;;;0.60;99.90;;;;;;4983799;28;20258;-72
2023/03/28 05:42:31;;;;;;;3.97;1.97;;;0.60;99.90;;;;;;4987268;28;20221;-71
2023/03/28 05:44:56;;;;;;;3.63;1.50;;;0.60;99.90;;;;;;4987375;28;20790;-73
2023/03/28 05:47:22;;;;;;;2.87;1.00;;;0.60;99.90;;;;;;4967429;28;20210;-72
2023/03/28 05:49:47;;;;;;;4.57;1.53;;;0.50;99.90;;;;;;4987286;28;20254;-73
2023/03/28 05:52:13;;;;;;;1.60;1.33;;;0.50;99.90;;;;;;4986950;28;20229;-73
2023/03/28 05:54:38;;;;;;;1.40;1.30;;;0.50;99.90;;;;;;4986125;28;20201;-72
2023/03/28 05:57:04;;;;;;;1.83;1.10;;;0.50;99.90;;;;;;4985968;28;20698;-73
2023/03/28 05:59:31;;;;;;;3.40;1.07;;;0.50;99.90;;;;;;4985493;28;20212;-72
2023/03/28 06:01:57;;;;;;;2.33;1.30;;;0.40;99.90;;;;;;4986986;28;20247;-72
2023/03/28 06:04:24;;;;;;;2.43;1.37;;;0.50;99.90;;;;;;4986774;28;20431;-72
2023/03/28 06:06:50;;;;;;;3.30;1.70;;;0.50;99.90;;;;;;4987447;28;20291;-71
2023/03/28 06:09:16;;;;;;;1.93;1.20;;;0.50;99.90;;;;;;4986748;28;20615;-73
2023/03/28 06:11:41;;;;;;;2.77;1.43;;;0.50;99.90;;;;;;4984981;28;20674;-73
2023/03/28 06:14:08;;;;;;;5.37;1.40;;;0.60;99.90;;;;;;4987337;28;20224;-72
2023/03/28 06:16:34;;;;;;;4.63;1.30;;;0.60;99.90;;;;;;4987602;28;20202;-72
2023/03/28 06:19:00;;;;;;;2.10;1.30;;;0.60;99.90;;;;;;4987415;28;20208;-72
2023/03/28 06:21:25;;;;;;;3.73;1.50;;;0.70;99.90;;;;;;4986801;28;20968;-70
2023/03/28 06:23:51;;;;;;;3.40;1.10;;;0.70;99.90;;;;;;4985721;28;20237;-73
2023/03/28 06:26:17;;;;;;;1.27;1.00;;;0.70;99.90;;;;;;4985731;28;20204;-72
2023/03/28 06:28:43;;;;;;;1.30;1.20;;;0.70;99.90;;;;;;4985508;28;20352;-71
2023/03/28 06:31:12;;;;;;;2.10;0.87;;;0.80;99.90;;;;;;4986786;28;20242;-71
2023/03/28 06:33:41;;;;;;;1.93;1.33;;;0.80;99.90;;;;;;4984437;28;20232;-73
2023/03/28 06:36:07;;;;;;;2.37;1.07;;;0.90;99.90;;;;;;4987414;28;20284;-73
2023/03/28 06:38:33;;;;;;;1.37;1.27;;;1.00;99.90;;;;;;4986867;28;20199;-71
2023/03/28 06:40:59;;;;;;;3.80;1.77;;;1.00;99.90;;;;;;4987210;28;20715;-72
2023/03/28 06:43:25;;;;;;;2.10;1.20;;;1.10;99.90;;;;;;4986685;28;20202;-71
2023/03/28 06:45:51;;;;;;;2.23;1.30;;;1.10;99.90;;;;;;4985024;28;20468;-73
2023/03/28 06:48:16;;;;;;;1.57;1.20;;;1.20;99.90;;;;;;4986392;28;20212;-73
2023/03/28 06:50:48;;;;;;;1.90;1.20;;;1.30;99.90;;;;;;4986315;28;20226;-72
2023/03/28 06:53:15;;;;;;;3.13;2.03;;;1.40;99.90;;;;;;4985952;28;20250;-71
2023/03/28 06:55:41;;;;;;;2.50;1.10;;;1.30;99.90;;;;;;4984273;28;20207;-75
2023/03/28 06:58:06;;;;;;;0.97;0.83;;;1.40;99.90;;;;;;4986580;28;20257;-71
2023/03/28 07:00:32;;;;;;;3.63;1.50;;;1.50;99.90;;;;;;4986605;28;20215;-70
2023/03/28 07:02:58;;;;;;;5.50;1.10;;;1.50;99.90;;;;;;4985266;28;20246;-70
2023/03/28 07:05:23;;;;;;;7.97;1.50;;;1.50;99.90;;;;;;4988214;28;20702;-76
2023/03/28 07:07:49;;;;;;;5.50;1.37;;;1.60;99.90;;;;;;4984578;28;20209;-74
2023/03/28 07:10:15;;;;;;;4.37;1.23;;;1.60;99.90;;;;;;4985636;28;20213;-71
2023/03/28 07:12:40;;;;;;;1.20;0.80;;;1.70;99.90;;;;;;4984731;28;20721;-71
2023/03/28 07:15:06;;;;;;;3.37;1.47;;;1.80;99.90;;;;;;4989021;28;20262;-74
2023/03/28 07:17:32;;;;;;;1.00;0.90;;;1.80;99.90;;;;;;4983868;28;20207;-70
2023/03/28 07:19:57;;;;;;;5.03;1.60;;;1.80;99.90;;;;;;4984892;28;20615;-71
2023/03/28 07:22:23;;;;;;;1.70;1.00;;;1.90;99.90;;;;;;4983359;28;20201;-72
2023/03/28 07:24:48;;;;;;;3.27;1.40;;;2.00;99.90;;;;;;4984987;28;20217;-72
2023/03/28 07:27:14;;;;;;;3.47;1.40;;;2.10;99.90;;;;;;4986327;28;20315;-74
2023/03/28 07:29:39;;;;;;;1.40;1.10;;;2.20;99.90;;;;;;4985648;28;20223;-71
2023/03/28 07:32:05;;;;;;;1.87;0.97;;;2.20;99.90;;;;;;4987106;28;20613;-71
2023/03/28 07:34:30;;;;;;;1.83;1.10;;;2.20;99.90;;;;;;4988108;28;20217;-73
2023/03/28 07:36:56;;;;;;;3.47;0.97;;;2.30;99.90;;;;;;4989533;28;20603;-72
2023/03/28 07:39:21;;;;;;;0.67;0.67;;;2.30;99.90;;;;;;4988757;28;20301;-71
2023/03/28 07:41:47;;;;;;;1.20;0.83;;;2.30;99.90;;;;;;4989564;28;20203;-72
2023/03/28 07:44:12;;;;;;;0.97;0.80;;;2.30;99.90;;;;;;4989824;28;20206;-71
2023/03/28 07:46:38;;;;;;;1.50;1.20;;;2.30;99.90;;;;;;4989050;28;20274;-72
2023/03/28 07:49:04;;;;;;;3.47;0.90;;;2.40;99.90;;;;;;4989851;28;20581;-71
2023/03/28 07:51:29;;;;;;;1.10;1.00;;;2.60;99.90;;;;;;4990139;28;20638;-71
2023/03/28 07:53:55;;;;;;;1.00;1.00;;;2.70;99.90;;;;;;4989817;28;20203;-71
2023/03/28 07:56:21;;;;;;;1.50;0.60;;;2.80;99.90;;;;;;4989520;28;20198;-71
2023/03/28 07:58:47;;;;;;;1.03;0.80;;;2.80;99.90;;;;;;4989508;28;20737;-72
2023/03/28 08:01:13;;;;;;;1.00;1.00;;;2.90;99.90;;;;;;4987385;28;20217;-71
2023/03/28 08:03:39;;;;;;;2.27;0.87;;;3.00;99.90;;;;;;4985422;28;20200;-72
2023/03/28 08:06:08;;;;;;;1.77;1.07;;;3.00;99.90;;;;;;4991657;28;20203;-72
2023/03/28 08:08:34;;;;;;;2.67;1.27;;;3.00;99.90;;;;;;4989192;28;20205;-72
2023/03/28 08:11:02;;;;;;;3.93;1.00;;;2.90;99.90;;;;;;4990013;28;20315;-71
2023/03/28 08:13:28;;;;;;;1.00;1.00;;;2.90;99.90;;;;;;4986825;28;20204;-72
2023/03/28 08:15:55;;;;;;;2.03;1.00;;;2.90;99.90;;;;;;4989986;28;20237;-71
2023/03/28 08:18:23;;;;;;;2.83;0.77;;;3.00;99.90;;;;;;4987706;28;20306;-71
2023/03/28 08:20:55;;;;;;;2.10;1.17;;;3.00;99.90;;;;;;4986903;28;20201;-72
2023/03/28 08:23:21;;;;;;;0.87;0.73;;;3.10;99.90;;;;;;4988328;28;20353;-71
2023/03/28 08:25:46;;;;;;;0.77;0.77;;;3.20;98.30;;;;;;4988343;28;20294;-71
2023/03/28 08:28:12;;;;;;;1.27;0.80;;;3.20;98.80;;;;;;4988767;28;20329;-71
2023/03/28 08:30:37;;;;;;;0.77;0.77;;;3.10;99.00;;;;;;4981729;28;20227;-72
2023/03/28 08:33:03;;;;;;;1.80;0.77;;;3.10;98.90;;;;;;4979060;28;20705;-73
2023/03/28 08:35:30;;;;;;;1.50;0.77;;;3.20;99.30;;;;;;4978511;28;20845;-72
2023/03/28 08:37:56;;;;;;;3.70;0.80;;;3.20;99.80;;;;;;4997708;28;20239;-72
2023/03/28 08:40:26;;;;;;;7.90;1.10;;;3.30;98.70;;;;;;4997755;28;20240;-72
2023/03/28 08:43:13;;;;;;;1.40;1.00;;;3.30;99.10;;;;;;4997597;28;20207;-72
2023/03/28 08:45:56;;;;;;;1.40;0.93;;;3.40;98.50;;;;;;4997796;28;20213;-72
2023/03/28 08:48:37;;;;;;;1.67;1.17;;;3.50;99.10;;;;;;4997179;28;20210;-72
2023/03/28 08:51:14;;;;;;;3.23;1.23;;;3.70;99.00;;;;;;4996409;28;20270;-72
2023/03/28 08:53:44;;;;;;;2.17;1.00;;;3.90;98.60;;;;;;4996891;28;20217;-72
2023/03/28 08:56:14;;;;;;;1.27;0.80;;;4.00;96.40;;;;;;4997486;28;20214;-72
2023/03/28 08:58:56;;;;;;;0.77;0.67;;;4.00;94.10;;;;;;4995880;28;20203;-74
2023/03/28 09:01:24;;;;;;;0.73;0.73;;;4.00;95.60;;;;;;4978538;28;20204;-73
2023/03/28 09:03:50;;;;;;;1.13;0.80;;;3.80;95.20;;;;;;4978676;28;20212;-72
2023/03/28 09:06:28;;;;;;;3.13;0.90;;;3.90;96.80;;;;;;4976658;28;20204;-73
2023/03/28 09:09:07;;;;;;;0.60;0.60;;;4.10;94.40;;;;;;4981102;28;20218;-78
2023/03/28 09:12:01;;;;;;;3.40;1.00;;;4.10;94.00;;;;;;4988716;28;20259;-71
2023/03/28 09:14:44;;;;;;;1.30;0.60;;;4.10;94.30;;;;;;4984140;28;20278;-73
2023/03/28 09:17:43;;;;;;;2.87;1.23;;;4.10;91.70;;;;;;4986734;28;20199;-72
2023/03/28 09:20:34;;;;;;;3.50;0.73;;;4.00;91.40;;;;;;4961108;28;20274;-73
2023/03/28 09:23:17;;;;;;;1.40;0.50;;;4.10;91.50;;;;;;4988396;28;20701;-72
2023/03/28 09:26:02;;;;;;;0.70;0.70;;;4.20;90.40;;;;;;4986054;28;20204;-72
2023/03/28 09:28:46;;;;;;;0.60;0.60;;;4.10;90.20;;;;;;4989388;28;20235;-72
2023/03/28 09:31:14;;;;;;;1.63;0.63;;;4.00;90.90;;;;;;4985014;28;20654;-72
2023/03/28 09:33:44;;;;;;;0.50;0.50;;;4.10;90.70;;;;;;4988396;28;20223;-72
2023/03/28 09:36:12;;;;;;;0.67;0.60;;;4.20;88.50;;;;;;4986371;28;20203;-74
2023/03/28 09:38:50;;;;;;;0.87;0.50;;;4.20;90.10;;;;;;4986773;28;20204;-72
2023/03/28 09:41:23;;;;;;;0.73;0.60;;;4.30;90.00;;;;;;4987688;28;20210;-73
2023/03/28 09:43:53;;;;;;;0.57;0.50;;;4.50;85.80;;;;;;4987903;28;20205;-75
2023/03/28 09:46:44;;;;;;;0.63;0.50;;;4.70;85.60;;;;;;4984161;28;20196;-73
2023/03/28 09:49:16;;;;;;;0.50;0.50;;;4.70;83.90;;;;;;4984901;28;20220;-73
2023/03/28 09:51:42;;;;;;;1.40;0.80;;;4.90;83.40;;;;;;4986492;28;20209;-73
2023/03/28 09:54:08;;;;;;;2.33;0.73;;;5.00;82.80;;;;;;4988182;28;20678;-73
2023/03/28 09:56:38;;;;;;;0.40;0.40;;;5.20;81.20;;;;;;4966873;28;20219;-73
2023/03/28 09:59:11;;;;;;;2.20;2.00;;;5.00;79.20;;;;;;4986270;28;20242;-71
2023/03/28 10:01:43;;;;;;;4.97;0.80;;;4.90;80.60;;;;;;4986878;28;20258;-72
2023/03/28 10:04:13;;;;;;;0.70;0.70;;;4.70;80.50;;;;;;4986432;28;20287;-73
2023/03/28 10:06:40;;;;;;;0.70;0.70;;;4.70;82.50;;;;;;4984884;28;20296;-74
2023/03/28 10:09:16;;;;;;;1.13;0.60;;;4.90;81.90;;;;;;4987138;28;20232;-71
2023/03/28 10:11:55;;;;;;;1.43;0.50;;;4.90;82.20;;;;;;4987119;28;20200;-71
2023/03/28 10:14:41;;;;;;;2.60;0.60;;;5.00;79.80;;;;;;4986725;28;20311;-73
2023/03/28 10:17:24;;;;;;;1.43;0.83;;;5.00;79.90;;;;;;4985503;28;20204;-73
2023/03/28 10:19:51;;;;;;;1.87;0.40;;;5.00;78.40;;;;;;4986300;28;20208;-73
2023/03/28 10:22:29;;;;;;;3.63;0.70;;;4.90;76.60;;;;;;4983815;28;20272;-74
2023/03/28 10:24:54;;;;;;;0.43;0.33;;;5.10;77.90;;;;;;4986505;28;20207;-74
2023/03/28 10:27:34;;;;;;;0.53;0.53;;;5.30;76.90;;;;;;4985625;28;20364;-72
2023/03/28 10:30:08;;;;;;;1.90;0.60;;;5.50;77.10;;;;;;4986662;28;20224;-71
2023/03/28 10:32:34;;;;;;;0.47;0.40;;;5.40;74.70;;;;;;4985068;28;20204;-72
2023/03/28 10:35:19;;;;;;;1.17;0.53;;;5.70;76.90;;;;;;4986103;28;20216;-73
2023/03/28 10:37:47;;;;;;;0.40;0.40;;;6.10;74.60;;;;;;4985902;28;20690;-75
2023/03/28 10:40:19;;;;;;;0.43;0.43;;;6.30;73.70;;;;;;4984956;28;20268;-74
2023/03/28 10:42:48;;;;;;;1.00;0.73;;;6.00;70.80;;;;;;4984724;28;20287;-72
2023/03/28 10:45:33;;;;;;;1.30;0.70;;;5.50;71.80;;;;;;4984903;28;20342;-74
2023/03/28 10:48:03;;;;;;;0.83;0.80;;;5.40;71.30;;;;;;4986977;28;20641;-74
2023/03/28 10:50:42;;;;;;;1.07;0.63;;;5.50;73.70;;;;;;4985024;28;20478;-74
2023/03/28 10:53:33;;;;;;;2.53;0.87;;;5.90;73.20;;;;;;4981977;28;20196;-74
2023/03/28 10:56:26;;;;;;;1.50;0.43;;;6.40;71.90;;;;;;4984459;28;20203;-71
2023/03/28 10:59:25;;;;;;;1.27;0.93;;;6.90;70.70;;;;;;4985601;28;20944;-71
2023/03/28 11:01:56;;;;;;;2.47;0.60;;;6.60;70.90;;;;;;4983440;28;20426;-72
2023/03/28 11:04:59;;;;;;;1.87;0.80;;;6.60;68.20;;;;;;4985638;28;20196;-71
2023/03/28 11:07:51;;;;;;;5.97;0.97;;;6.50;69.00;;;;;;4985247;28;20200;-73
2023/03/28 11:10:50;;;;;;;0.80;0.70;;;6.20;68.40;;;;;;4988446;28;20231;-72
2023/03/28 11:13:36;;;;;;;0.50;0.50;;;6.30;70.00;;;;;;4989382;28;20216;-72
2023/03/28 11:16:10;;;;;;;0.60;0.60;;;6.70;68.50;;;;;;4995529;28;20204;-73
2023/03/28 11:18:55;;;;;;;0.50;0.50;;;6.90;66.80;;;;;;4991426;28;20203;-74
2023/03/28 11:22:00;;;;;;;0.50;0.50;;;7.10;65.10;;;;;;4986935;28;20572;-76
2023/03/28 11:24:39;;;;;;;3.00;0.40;;;7.20;65.20;;;;;;4983977;28;20361;-72
2023/03/28 11:27:22;;;;;;;2.57;0.73;;;7.10;64.70;;;;;;4986526;28;20214;-74
2023/03/28 11:30:36;;;;;;;1.17;0.70;;;6.80;64.70;;;;;;4986135;28;20281;-74
2023/03/28 11:33:12;;;;;;;0.60;0.50;;;6.50;66.00;;;;;;4888211;29;20740;-73
2023/03/28 11:35:43;;;;;;;1.27;1.17;;;6.20;63.90;;;;;;4971871;28;20705;-70
2023/03/28 11:38:23;;;;;;;1.13;0.60;;;6.10;63.70;;;;;;4984971;28;20891;-68
2023/03/28 11:41:03;;;;;;;1.53;0.83;;;5.90;63.20;;;;;;4977468;28;20247;-68
2023/03/28 11:43:52;;;;;;;1.23;0.73;;;6.20;64.10;;;;;;4976632;28;20573;-69
2023/03/28 11:46:30;;;;;;;1.93;0.80;;;6.40;63.80;;;;;;4976356;28;20259;-70
2023/03/28 11:49:34;;;;;;;1.77;0.47;;;7.00;62.40;;;;;;4991417;28;20699;-69
2023/03/28 11:52:27;;;;;;;0.63;0.50;;;7.70;62.80;;;;;;4995287;28;20987;-69
2023/03/28 11:55:13;;;;;;;1.27;0.97;;;8.30;60.20;;;;;;4993502;28;20200;-70
2023/03/28 11:58:03;;;;;;;0.60;0.60;;;8.10;58.30;;;;;;4995531;28;20196;-70
2023/03/28 12:00:32;;;;;;;1.27;0.40;;;8.00;58.80;;;;;;4976251;28;20204;-72
2023/03/28 12:03:07;;;;;;;1.47;1.10;;;7.70;57.00;;;;;;4976182;28;20296;-74
2023/03/28 12:05:39;;;;;;;2.97;2.87;;;7.50;55.90;;;;;;4976238;28;20605;-72
2023/03/28 12:08:17;;;;;;;2.20;2.03;;;7.10;57.80;;;;;;4975725;28;20245;-73
2023/03/28 12:10:47;;;;;;;1.27;1.27;;;7.30;58.10;;;;;;4983411;28;20623;-72
2023/03/28 12:13:30;;;;;;;1.80;1.70;;;8.10;57.30;;;;;;4984584;28;20675;-71
2023/03/28 12:16:07;;;;;;;1.33;0.77;;;8.40;55.70;;;;;;4986668;28;20199;-71
2023/03/28 12:18:44;;;;;;;2.13;1.93;;;8.90;55.50;;;;;;4987854;28;20201;-72
2023/03/28 12:21:26;;;;;;;0.70;0.70;;;9.70;55.60;;;;;;4982622;28;20212;-73
2023/03/28 12:24:13;;;;;;;0.50;0.50;;;10.30;53.20;;;;;;4979606;28;20289;-72
2023/03/28 12:27:05;;;;;;;0.63;0.60;;;10.70;51.50;;;;;;4979865;28;20191;-78
2023/03/28 12:29:46;;;;;;;1.63;0.77;;;10.10;48.60;;;;;;4989673;28;20665;-73
2023/03/28 12:32:31;;;;;;;0.63;0.50;;;8.70;51.50;;;;;;4989777;28;20295;-74
2023/03/28 12:35:17;;;;;;;0.67;0.60;;;8.10;53.10;;;;;;4990039;28;20737;-73
2023/03/28 12:38:01;;;;;;;0.60;0.60;;;9.00;53.10;;;;;;4988340;28;20205;-75
2023/03/28 12:40:44;;;;;;;0.70;0.53;;;10.00;49.90;;;;;;4987956;28;20220;-71
2023/03/28 12:43:13;;;;;;;2.20;2.00;;;10.20;48.10;;;;;;4992442;28;20246;-73
2023/03/28 12:45:46;;;;;;;4.20;0.90;;;10.20;48.40;;;;;;4997227;28;20225;-69
2023/03/28 12:48:37;;;;;;;6.27;5.20;;;10.50;47.60;;;;;;4992521;28;20244;-76
2023/03/28 12:51:32;;;;;;;0.70;0.70;;;10.60;46.50;;;;;;4980505;28;20226;-78
2023/03/28 12:54:06;;;;;;;1.40;1.00;;;10.00;46.40;;;;;;4998858;28;20503;-77
2023/03/28 12:56:32;;;;;;;0.70;0.70;;;9.70;47.80;;;;;;4994773;28;20198;-71
2023/03/28 12:58:58;;;;;;;1.60;1.50;;;9.70;47.20;;;;;;4985997;28;20253;-70
2023/03/28 13:01:40;;;;;;;3.20;1.10;;;9.40;48.10;;;;;;4989927;28;20206;-70
2023/03/28 13:04:31;;;;;;;2.93;1.30;;;10.10;46.70;;;;;;4989144;28;20197;-73
2023/03/28 13:07:23;;;;;;;2.33;0.90;;;11.00;46.70;;;;;;4977495;28;20228;-74
2023/03/28 13:09:59;;;;;;;1.47;1.33;;;11.90;44.70;;;;;;4988292;28;20218;-71
2023/03/28 13:12:43;;;;;;;1.10;1.00;;;12.00;43.30;;;;;;4987894;28;20215;-72
2023/03/28 13:15:12;;;;;;;1.53;1.27;;;12.40;43.00;;;;;;4987408;28;20206;-71
2023/03/28 13:17:44;;;;;;;1.50;1.40;;;12.40;42.80;;;;;;4987656;28;20211;-72
2023/03/28 13:20:16;;;;;;;0.97;0.57;;;12.40;42.80;;;;;;4986735;28;20216;-71
2023/03/28 13:22:56;;;;;;;1.50;0.60;;;13.00;40.50;;;;;;4985409;28;20206;-70
2023/03/28 13:25:32;;;;;;;0.83;0.80;;;11.90;42.40;;;;;;4987444;28;20208;-72